createdAt,value
2018-01-18T00:00:04.539Z,995.2
2018-01-18T00:01:06.281Z,995.1
2018-01-18T00:02:07.883Z,995.1
2018-01-18T00:03:09.706Z,995.1
2018-01-18T00:04:11.323Z,995.2
2018-01-18T00:05:13.621Z,995.2
2018-01-18T00:06:15.227Z,995.1
2018-01-18T00:07:16.838Z,995.1
2018-01-18T00:08:18.444Z,995.1
2018-01-18T00:09:20.473Z,995.0
2018-01-18T00:10:22.079Z,995.1
2018-01-18T00:11:23.742Z,995.0
2018-01-18T00:12:25.626Z,995.0
2018-01-18T00:13:27.261Z,995.0
2018-01-18T00:14:28.984Z,994.9
2018-01-18T00:15:30.763Z,994.9
2018-01-18T00:16:32.449Z,994.9
2018-01-18T00:17:34.625Z,994.9
2018-01-18T00:18:36.235Z,995.0
2018-01-18T00:19:38.035Z,994.9
2018-01-18T00:20:39.638Z,994.9
2018-01-18T00:21:41.544Z,995.0
2018-01-18T00:22:43.159Z,994.9
2018-01-18T00:23:45.000Z,995.0
2018-01-18T00:24:46.610Z,995.0
2018-01-18T00:25:48.213Z,995.0
2018-01-18T00:26:49.827Z,994.9
2018-01-18T00:27:51.461Z,994.9
2018-01-18T00:28:53.074Z,994.9
2018-01-18T00:29:54.685Z,994.9
2018-01-18T00:30:56.394Z,994.8
2018-01-18T00:31:58.107Z,994.9
2018-01-18T00:32:59.794Z,994.8
2018-01-18T00:34:01.405Z,994.8
2018-01-18T00:35:03.011Z,994.8
2018-01-18T00:36:04.870Z,994.7
2018-01-18T00:37:06.772Z,994.7
2018-01-18T00:38:08.518Z,994.6
2018-01-18T00:39:10.153Z,994.7
2018-01-18T00:40:11.924Z,994.5
2018-01-18T00:41:13.535Z,994.5
2018-01-18T00:42:15.145Z,994.4
2018-01-18T00:43:16.750Z,994.4
2018-01-18T00:44:18.356Z,994.4
2018-01-18T00:45:19.967Z,994.4
2018-01-18T00:46:21.573Z,994.4
2018-01-18T00:47:23.173Z,994.4
2018-01-18T00:48:24.783Z,994.4
2018-01-18T00:49:26.384Z,994.4
2018-01-18T00:50:27.992Z,994.4
2018-01-18T00:51:29.599Z,994.4
2018-01-18T00:52:31.206Z,994.5
2018-01-18T00:53:32.814Z,994.5
2018-01-18T00:54:34.423Z,994.4
2018-01-18T00:55:36.023Z,994.4
2018-01-18T00:56:37.625Z,994.4
2018-01-18T00:57:39.237Z,994.4
2018-01-18T00:58:40.845Z,994.4
2018-01-18T00:59:42.451Z,994.4
2018-01-18T01:00:44.053Z,994.3
2018-01-18T01:01:45.669Z,994.4
2018-01-18T01:02:47.270Z,994.2
2018-01-18T01:03:48.873Z,994.2
2018-01-18T01:04:50.478Z,994.2
2018-01-18T01:05:52.090Z,994.1
2018-01-18T01:06:53.699Z,994.1
2018-01-18T01:07:55.298Z,994.1
2018-01-18T01:08:56.907Z,994.1
2018-01-18T01:09:58.513Z,994.1
2018-01-18T01:11:00.124Z,994.1
2018-01-18T01:12:01.734Z,994.0
2018-01-18T01:13:03.344Z,993.9
2018-01-18T01:14:04.950Z,994.0
2018-01-18T01:15:06.558Z,993.9
2018-01-18T01:16:08.160Z,993.8
2018-01-18T01:17:09.769Z,993.8
2018-01-18T01:18:11.371Z,993.8
2018-01-18T01:19:12.981Z,993.9
2018-01-18T01:20:14.585Z,993.7
2018-01-18T01:21:16.200Z,993.6
2018-01-18T01:22:17.798Z,993.5
2018-01-18T01:23:19.400Z,993.5
2018-01-18T01:24:21.012Z,993.5
2018-01-18T01:25:23.216Z,993.5
2018-01-18T01:26:24.828Z,993.5
2018-01-18T01:27:26.646Z,993.5
2018-01-18T01:28:29.041Z,993.4
2018-01-18T01:29:30.740Z,993.3
2018-01-18T01:30:32.708Z,993.3
2018-01-18T01:31:34.325Z,993.3
2018-01-18T01:32:36.150Z,993.3
2018-01-18T01:33:37.772Z,993.3
2018-01-18T01:34:39.378Z,993.3
2018-01-18T01:35:40.989Z,993.4
2018-01-18T01:36:42.593Z,993.4
2018-01-18T01:37:44.689Z,993.4
2018-01-18T01:38:46.487Z,993.4
2018-01-18T01:39:48.097Z,993.5
2018-01-18T01:40:50.121Z,993.4
2018-01-18T01:41:51.731Z,993.5
2018-01-18T01:42:53.337Z,993.4
2018-01-18T01:43:55.205Z,993.3
2018-01-18T01:44:56.818Z,993.3
2018-01-18T01:45:58.425Z,993.3
2018-01-18T01:47:00.036Z,993.3
2018-01-18T01:48:02.324Z,993.3
2018-01-18T01:49:03.986Z,993.2
2018-01-18T01:50:05.532Z,993.2
2018-01-18T01:51:07.146Z,993.1
2018-01-18T01:52:08.749Z,993.0
2018-01-18T01:53:10.368Z,993.2
2018-01-18T01:54:11.976Z,992.9
2018-01-18T01:55:13.587Z,992.9
2018-01-18T01:56:15.191Z,992.9
2018-01-18T01:57:17.201Z,992.8
2018-01-18T01:58:19.199Z,992.8
2018-01-18T01:59:20.809Z,992.8
2018-01-18T02:00:22.712Z,992.8
2018-01-18T02:01:24.330Z,992.7
2018-01-18T02:02:25.945Z,992.7
2018-01-18T02:03:27.919Z,992.6
2018-01-18T02:04:29.543Z,992.6
2018-01-18T02:05:31.147Z,992.5
2018-01-18T02:06:32.756Z,992.5
2018-01-18T02:07:34.358Z,992.5
2018-01-18T02:08:35.967Z,992.5
2018-01-18T02:09:37.577Z,992.5
2018-01-18T02:10:39.188Z,992.4
2018-01-18T02:11:40.792Z,992.4
2018-01-18T02:12:42.396Z,992.5
2018-01-18T02:13:44.007Z,992.4
2018-01-18T02:14:45.617Z,992.4
2018-01-18T02:15:47.220Z,992.3
2018-01-18T02:16:48.826Z,992.3
2018-01-18T02:17:50.435Z,992.3
2018-01-18T02:18:52.039Z,992.3
2018-01-18T02:19:53.648Z,992.3
2018-01-18T02:20:55.255Z,992.3
2018-01-18T02:21:56.857Z,992.1
2018-01-18T02:22:58.462Z,992.1
2018-01-18T02:24:00.077Z,992.0
2018-01-18T02:25:01.683Z,992.1
2018-01-18T02:26:03.294Z,992.1
2018-01-18T02:27:04.900Z,992.0
2018-01-18T02:28:06.500Z,991.9
2018-01-18T02:29:08.110Z,991.9
2018-01-18T02:30:09.713Z,991.8
2018-01-18T02:31:11.330Z,991.7
2018-01-18T02:32:12.924Z,991.7
2018-01-18T02:33:14.534Z,991.8
2018-01-18T02:34:16.142Z,991.6
2018-01-18T02:35:17.751Z,991.6
2018-01-18T02:36:19.356Z,991.5
2018-01-18T02:37:20.959Z,991.5
2018-01-18T02:38:22.570Z,991.6
2018-01-18T02:39:24.180Z,991.4
2018-01-18T02:40:25.782Z,991.3
2018-01-18T02:41:27.388Z,991.3
2018-01-18T02:42:28.998Z,991.3
2018-01-18T02:43:30.605Z,991.3
2018-01-18T02:44:32.209Z,991.3
2018-01-18T02:45:33.814Z,991.2
2018-01-18T02:46:35.427Z,991.3
2018-01-18T02:47:37.034Z,991.2
2018-01-18T02:48:38.638Z,991.2
2018-01-18T02:49:40.246Z,991.2
2018-01-18T02:50:41.847Z,991.3
2018-01-18T02:51:43.458Z,991.1
2018-01-18T02:52:45.061Z,991.0
2018-01-18T02:53:46.671Z,990.9
2018-01-18T02:54:48.283Z,991.0
2018-01-18T02:55:49.887Z,990.9
2018-01-18T02:56:52.166Z,991.0
2018-01-18T02:57:53.053Z,990.8
2018-01-18T02:58:54.657Z,990.8
2018-01-18T02:59:56.263Z,990.7
2018-01-18T03:00:57.876Z,990.6
2018-01-18T03:01:59.479Z,990.7
2018-01-18T03:03:01.091Z,990.6
2018-01-18T03:04:02.692Z,990.6
2018-01-18T03:05:04.304Z,990.5
2018-01-18T03:06:05.908Z,990.5
2018-01-18T03:07:07.521Z,990.5
2018-01-18T03:08:09.126Z,990.5
2018-01-18T03:09:10.739Z,990.4
2018-01-18T03:10:12.341Z,990.4
2018-01-18T03:11:13.953Z,990.3
2018-01-18T03:12:15.556Z,990.3
2018-01-18T03:13:17.165Z,990.3
2018-01-18T03:14:18.770Z,990.3
2018-01-18T03:15:20.380Z,990.3
2018-01-18T03:16:21.989Z,990.2
2018-01-18T03:17:23.589Z,990.2
2018-01-18T03:18:25.196Z,990.2
2018-01-18T03:19:26.804Z,990.0
2018-01-18T03:20:28.415Z,990.1
2018-01-18T03:21:30.020Z,990.0
2018-01-18T03:22:31.626Z,989.9
2018-01-18T03:23:33.237Z,989.8
2018-01-18T03:24:34.845Z,989.8
2018-01-18T03:25:36.448Z,989.7
2018-01-18T03:26:38.052Z,989.6
2018-01-18T03:27:39.661Z,989.6
2018-01-18T03:28:41.268Z,989.5
2018-01-18T03:29:42.871Z,989.5
2018-01-18T03:30:44.479Z,989.6
2018-01-18T03:31:46.090Z,989.5
2018-01-18T03:32:47.692Z,989.4
2018-01-18T03:33:49.301Z,989.5
2018-01-18T03:34:50.909Z,989.4
2018-01-18T03:35:52.514Z,989.4
2018-01-18T03:36:54.123Z,989.3
2018-01-18T03:37:55.734Z,989.3
2018-01-18T03:38:57.338Z,989.2
2018-01-18T03:39:58.941Z,989.3
2018-01-18T03:41:00.543Z,989.1
2018-01-18T03:42:02.148Z,989.0
2018-01-18T03:43:03.754Z,989.0
2018-01-18T03:44:05.360Z,988.8
2018-01-18T03:45:06.966Z,988.9
2018-01-18T03:46:08.571Z,988.8
2018-01-18T03:47:10.179Z,988.8
2018-01-18T03:48:11.779Z,988.7
2018-01-18T03:49:13.388Z,988.7
2018-01-18T03:50:14.994Z,988.5
2018-01-18T03:51:16.602Z,988.4
2018-01-18T03:52:18.208Z,988.3
2018-01-18T03:53:19.820Z,988.4
2018-01-18T03:54:21.421Z,988.4
2018-01-18T03:55:23.029Z,988.2
2018-01-18T03:56:24.630Z,988.1
2018-01-18T03:57:26.240Z,987.9
2018-01-18T03:58:27.848Z,987.8
2018-01-18T03:59:29.457Z,987.7
2018-01-18T04:00:31.062Z,987.7
2018-01-18T04:01:32.671Z,987.7
2018-01-18T04:02:34.273Z,987.6
2018-01-18T04:03:35.879Z,987.6
2018-01-18T04:04:37.490Z,987.5
2018-01-18T04:05:39.093Z,987.3
2018-01-18T04:06:40.708Z,987.3
2018-01-18T04:07:42.307Z,987.2
2018-01-18T04:08:43.914Z,987.1
2018-01-18T04:09:45.517Z,987.1
2018-01-18T04:10:47.125Z,987.0
2018-01-18T04:11:48.726Z,986.9
2018-01-18T04:12:50.346Z,986.8
2018-01-18T04:13:51.943Z,986.7
2018-01-18T04:14:53.552Z,986.7
2018-01-18T04:15:55.155Z,986.7
2018-01-18T04:16:56.756Z,986.6
2018-01-18T04:17:58.364Z,986.6
2018-01-18T04:18:59.971Z,986.5
2018-01-18T04:20:01.579Z,986.3
2018-01-18T04:21:03.209Z,986.4
2018-01-18T04:22:04.789Z,986.3
2018-01-18T04:23:06.397Z,986.1
2018-01-18T04:24:08.004Z,986.4
2018-01-18T04:25:09.606Z,986.4
2018-01-18T04:26:11.209Z,986.2
2018-01-18T04:27:12.818Z,986.1
2018-01-18T04:28:14.425Z,986.1
2018-01-18T04:29:16.028Z,985.9
2018-01-18T04:30:17.634Z,985.9
2018-01-18T04:31:19.254Z,985.8
2018-01-18T04:32:20.869Z,985.8
2018-01-18T04:33:22.478Z,985.6
2018-01-18T04:34:24.081Z,985.7
2018-01-18T04:35:25.689Z,985.6
2018-01-18T04:36:27.291Z,985.5
2018-01-18T04:37:28.899Z,985.4
2018-01-18T04:38:30.499Z,985.6
2018-01-18T04:39:32.109Z,985.4
2018-01-18T04:40:33.714Z,985.3
2018-01-18T04:41:35.322Z,985.3
2018-01-18T04:42:36.927Z,985.2
2018-01-18T04:43:38.533Z,985.2
2018-01-18T04:44:40.141Z,985.0
2018-01-18T04:45:41.741Z,985.0
2018-01-18T04:46:43.349Z,984.9
2018-01-18T04:47:44.954Z,985.0
2018-01-18T04:48:46.558Z,984.9
2018-01-18T04:49:48.163Z,984.9
2018-01-18T04:50:49.771Z,984.8
2018-01-18T04:51:51.375Z,984.6
2018-01-18T04:52:52.982Z,984.5
2018-01-18T04:53:54.586Z,984.5
2018-01-18T04:54:56.200Z,984.3
2018-01-18T04:55:57.803Z,984.2
2018-01-18T04:56:59.412Z,984.1
2018-01-18T04:58:01.011Z,984.3
2018-01-18T04:59:02.618Z,984.2
2018-01-18T05:00:04.220Z,984.1
2018-01-18T05:01:05.828Z,984.0
2018-01-18T05:02:07.435Z,984.0
2018-01-18T05:03:09.038Z,983.8
2018-01-18T05:04:10.644Z,983.9
2018-01-18T05:05:12.247Z,983.7
2018-01-18T05:06:13.853Z,983.5
2018-01-18T05:07:15.454Z,983.6
2018-01-18T05:08:17.063Z,983.6
2018-01-18T05:09:18.665Z,983.6
2018-01-18T05:10:20.271Z,983.6
2018-01-18T05:11:21.879Z,983.5
2018-01-18T05:12:23.483Z,983.7
2018-01-18T05:13:25.083Z,983.4
2018-01-18T05:14:26.693Z,983.5
2018-01-18T05:15:28.294Z,983.4
2018-01-18T05:16:29.905Z,983.3
2018-01-18T05:17:31.506Z,983.3
2018-01-18T05:18:33.117Z,983.0
2018-01-18T05:19:34.716Z,983.2
2018-01-18T05:20:36.325Z,983.1
2018-01-18T05:21:37.929Z,983.1
2018-01-18T05:22:39.536Z,983.2
2018-01-18T05:23:41.143Z,983.2
2018-01-18T05:24:42.750Z,983.2
2018-01-18T05:25:44.350Z,983.2
2018-01-18T05:26:45.957Z,983.3
2018-01-18T05:27:47.560Z,983.1
2018-01-18T05:28:49.167Z,983.1
2018-01-18T05:29:50.774Z,983.0
2018-01-18T05:30:52.376Z,983.0
2018-01-18T05:31:53.990Z,983.0
2018-01-18T05:32:55.589Z,983.0
2018-01-18T05:33:57.195Z,982.9
2018-01-18T05:34:58.796Z,982.7
2018-01-18T05:36:00.398Z,982.6
2018-01-18T05:37:02.010Z,982.4
2018-01-18T05:38:03.613Z,982.3
2018-01-18T05:39:05.219Z,982.4
2018-01-18T05:40:06.829Z,982.3
2018-01-18T05:41:08.434Z,982.3
2018-01-18T05:42:10.041Z,982.1
2018-01-18T05:43:11.640Z,982.1
2018-01-18T05:44:13.246Z,981.9
2018-01-18T05:45:14.853Z,981.9
2018-01-18T05:46:16.459Z,981.9
2018-01-18T05:47:18.069Z,982.0
2018-01-18T05:48:19.672Z,981.8
2018-01-18T05:49:21.280Z,981.8
2018-01-18T05:50:22.879Z,981.8
2018-01-18T05:51:24.486Z,981.8
2018-01-18T05:52:26.089Z,981.7
2018-01-18T05:53:27.699Z,981.7
2018-01-18T05:54:29.302Z,981.5
2018-01-18T05:55:30.909Z,981.7
2018-01-18T05:56:32.510Z,981.7
2018-01-18T05:57:34.120Z,981.6
2018-01-18T05:58:35.724Z,981.7
2018-01-18T05:59:37.334Z,981.7
2018-01-18T06:00:38.942Z,981.7
2018-01-18T06:01:40.548Z,981.5
2018-01-18T06:02:42.152Z,981.7
2018-01-18T06:03:43.762Z,981.5
2018-01-18T06:04:45.365Z,981.5
2018-01-18T06:05:46.969Z,981.5
2018-01-18T06:06:48.574Z,981.6
2018-01-18T06:07:50.186Z,981.5
2018-01-18T06:08:51.792Z,981.3
2018-01-18T06:09:53.393Z,981.2
2018-01-18T06:10:54.996Z,981.4
2018-01-18T06:11:56.603Z,981.5
2018-01-18T06:12:58.211Z,981.1
2018-01-18T06:13:59.812Z,981.4
2018-01-18T06:15:01.417Z,981.3
2018-01-18T06:16:03.031Z,981.0
2018-01-18T06:17:04.677Z,980.9
2018-01-18T06:18:06.238Z,980.6
2018-01-18T06:19:07.851Z,980.8
2018-01-18T06:20:09.453Z,980.9
2018-01-18T06:21:11.062Z,980.7
2018-01-18T06:22:12.666Z,980.8
2018-01-18T06:23:14.271Z,980.9
2018-01-18T06:24:15.881Z,980.8
2018-01-18T06:25:17.489Z,980.5
2018-01-18T06:26:19.092Z,980.4
2018-01-18T06:27:20.696Z,980.3
2018-01-18T06:28:22.305Z,980.5
2018-01-18T06:29:23.921Z,980.4
2018-01-18T06:30:25.524Z,980.2
2018-01-18T06:31:27.129Z,980.0
2018-01-18T06:32:28.736Z,980.0
2018-01-18T06:33:30.351Z,979.9
2018-01-18T06:34:31.948Z,980.1
2018-01-18T06:35:33.554Z,980.2
2018-01-18T06:36:35.164Z,980.1
2018-01-18T06:37:36.773Z,980.1
2018-01-18T06:38:38.375Z,980.1
2018-01-18T06:39:39.981Z,980.1
2018-01-18T06:40:41.591Z,979.8
2018-01-18T06:41:43.199Z,980.0
2018-01-18T06:42:44.803Z,979.8
2018-01-18T06:43:46.419Z,979.8
2018-01-18T06:44:48.023Z,979.8
2018-01-18T06:45:49.629Z,980.0
2018-01-18T06:46:51.233Z,979.8
2018-01-18T06:47:52.839Z,979.7
2018-01-18T06:48:54.448Z,979.7
2018-01-18T06:49:56.051Z,979.7
2018-01-18T06:50:57.665Z,979.8
2018-01-18T06:51:59.270Z,979.5
2018-01-18T06:53:00.878Z,979.4
2018-01-18T06:54:02.480Z,979.4
2018-01-18T06:55:04.089Z,979.6
2018-01-18T06:56:05.692Z,979.8
2018-01-18T06:57:07.303Z,979.6
2018-01-18T06:58:08.914Z,979.7
2018-01-18T06:59:10.519Z,979.5
2018-01-18T07:00:12.125Z,979.3
2018-01-18T07:01:13.733Z,979.6
2018-01-18T07:02:15.343Z,979.4
2018-01-18T07:03:16.945Z,979.3
2018-01-18T07:04:18.552Z,979.4
2018-01-18T07:05:20.164Z,979.4
2018-01-18T07:06:21.779Z,979.4
2018-01-18T07:07:23.373Z,979.5
2018-01-18T07:08:24.978Z,979.4
2018-01-18T07:10:46.032Z,979.3
2018-01-18T07:11:47.636Z,979.3
2018-01-18T07:12:49.247Z,979.3
2018-01-18T07:13:50.851Z,979.3
2018-01-18T07:14:52.455Z,979.1
2018-01-18T07:15:54.065Z,979.0
2018-01-18T07:16:55.676Z,979.0
2018-01-18T07:17:57.283Z,979.1
2018-01-18T07:18:59.830Z,979.1
2018-01-18T07:20:01.442Z,979.0
2018-01-18T07:21:03.053Z,979.1
2018-01-18T07:22:04.656Z,978.7
2018-01-18T07:23:06.268Z,979.4
2018-01-18T07:24:07.877Z,979.0
2018-01-18T07:25:09.489Z,978.8
2018-01-18T07:26:11.097Z,978.9
2018-01-18T07:27:12.700Z,978.9
2018-01-18T07:28:14.311Z,979.0
2018-01-18T07:29:15.921Z,978.8
2018-01-18T07:30:17.529Z,978.7
2018-01-18T07:31:19.140Z,978.5
2018-01-18T07:32:21.709Z,978.8
2018-01-18T07:33:23.319Z,978.4
2018-01-18T07:34:24.924Z,978.7
2018-01-18T07:35:26.532Z,978.4
2018-01-18T07:36:28.144Z,978.4
2018-01-18T07:37:29.755Z,978.5
2018-01-18T07:38:31.362Z,978.5
2018-01-18T07:39:32.974Z,978.4
2018-01-18T07:40:34.582Z,978.5
2018-01-18T07:41:36.193Z,978.5
2018-01-18T07:42:37.797Z,978.5
2018-01-18T07:43:39.411Z,978.4
2018-01-18T07:44:41.017Z,978.4
2018-01-18T07:45:42.632Z,978.7
2018-01-18T07:46:44.240Z,978.6
2018-01-18T07:47:45.855Z,978.8
2018-01-18T07:48:47.458Z,978.2
2018-01-18T07:49:49.072Z,978.4
2018-01-18T07:50:50.680Z,978.3
2018-01-18T07:51:52.294Z,978.2
2018-01-18T07:52:53.902Z,978.3
2018-01-18T07:53:55.514Z,978.3
2018-01-18T07:54:57.126Z,978.0
2018-01-18T07:55:58.732Z,978.2
2018-01-18T07:57:00.350Z,978.2
2018-01-18T07:58:01.958Z,978.1
2018-01-18T07:59:03.573Z,978.2
2018-01-18T08:00:05.181Z,978.0
2018-01-18T08:01:06.797Z,978.0
2018-01-18T08:02:08.404Z,977.9
2018-01-18T08:03:10.635Z,977.9
2018-01-18T08:04:12.241Z,977.7
2018-01-18T08:05:13.856Z,978.0
2018-01-18T08:06:15.465Z,978.0
2018-01-18T08:07:17.081Z,978.0
2018-01-18T08:08:18.691Z,977.8
2018-01-18T08:09:20.303Z,978.0
2018-01-18T08:10:21.914Z,978.0
2018-01-18T08:11:23.521Z,978.2
2018-01-18T08:12:25.134Z,978.0
2018-01-18T08:13:26.746Z,978.0
2018-01-18T08:14:28.363Z,978.0
2018-01-18T08:15:29.973Z,978.0
2018-01-18T08:16:31.581Z,978.0
2018-01-18T08:17:33.197Z,977.8
2018-01-18T08:18:34.810Z,977.6
2018-01-18T08:19:36.423Z,977.8
2018-01-18T08:20:38.036Z,977.8
2018-01-18T08:21:39.657Z,977.3
2018-01-18T08:22:41.274Z,977.5
2018-01-18T08:23:42.880Z,977.4
2018-01-18T08:24:44.490Z,977.5
2018-01-18T08:25:46.114Z,977.8
2018-01-18T08:26:47.715Z,977.7
2018-01-18T08:27:49.325Z,977.7
2018-01-18T08:28:50.936Z,978.0
2018-01-18T08:29:52.553Z,978.1
2018-01-18T08:30:54.161Z,977.5
2018-01-18T08:31:55.774Z,977.8
2018-01-18T08:32:57.382Z,977.6
2018-01-18T08:33:58.993Z,977.6
2018-01-18T08:35:00.606Z,977.5
2018-01-18T08:36:02.225Z,977.4
2018-01-18T08:37:03.842Z,977.3
2018-01-18T08:38:05.449Z,977.2
2018-01-18T08:39:07.061Z,977.2
2018-01-18T08:40:08.677Z,977.3
2018-01-18T08:41:10.294Z,977.2
2018-01-18T08:42:11.902Z,977.0
2018-01-18T08:43:13.522Z,977.0
2018-01-18T08:44:15.136Z,976.9
2018-01-18T08:45:16.748Z,976.9
2018-01-18T08:46:18.357Z,976.6
2018-01-18T08:47:19.977Z,976.8
2018-01-18T08:48:21.586Z,977.1
2018-01-18T08:49:23.204Z,977.1
2018-01-18T08:50:24.822Z,976.8
2018-01-18T08:51:26.441Z,977.0
2018-01-18T08:52:28.052Z,976.7
2018-01-18T08:53:29.666Z,976.8
2018-01-18T08:54:31.278Z,976.8
2018-01-18T08:55:32.894Z,976.9
2018-01-18T08:56:34.507Z,976.9
2018-01-18T08:57:36.126Z,976.9
2018-01-18T08:58:37.742Z,976.8
2018-01-18T08:59:39.352Z,976.7
2018-01-18T09:00:40.973Z,976.8
2018-01-18T09:01:42.586Z,977.0
2018-01-18T09:02:44.201Z,976.6
2018-01-18T09:03:45.821Z,976.8
2018-01-18T09:04:47.441Z,976.3
2018-01-18T09:05:49.058Z,976.6
2018-01-18T09:06:50.666Z,976.4
2018-01-18T09:07:52.278Z,976.9
2018-01-18T09:08:53.910Z,976.5
2018-01-18T09:09:55.525Z,976.5
2018-01-18T09:10:57.142Z,976.5
2018-01-18T09:11:58.757Z,976.5
2018-01-18T09:13:00.378Z,976.7
2018-01-18T09:14:01.988Z,976.7
2018-01-18T09:15:03.605Z,976.4
2018-01-18T09:16:05.225Z,976.5
2018-01-18T09:17:06.839Z,976.8
2018-01-18T09:18:08.459Z,976.6
2018-01-18T09:19:10.071Z,976.8
2018-01-18T09:20:11.688Z,976.8
2018-01-18T09:21:13.301Z,976.6
2018-01-18T09:22:14.922Z,976.8
2018-01-18T09:23:16.540Z,976.8
2018-01-18T09:24:18.154Z,976.9
2018-01-18T09:25:19.774Z,976.5
2018-01-18T09:26:21.395Z,977.0
2018-01-18T09:27:23.011Z,976.5
2018-01-18T09:28:24.623Z,976.9
2018-01-18T09:29:26.243Z,977.1
2018-01-18T09:30:27.859Z,976.9
2018-01-18T09:31:29.472Z,977.0
2018-01-18T09:32:31.095Z,977.6
2018-01-18T09:33:32.713Z,976.9
2018-01-18T09:34:34.330Z,977.0
2018-01-18T09:35:35.943Z,977.2
2018-01-18T09:36:37.562Z,977.1
2018-01-18T09:37:39.172Z,977.2
2018-01-18T09:38:40.789Z,977.2
2018-01-18T09:39:42.400Z,977.1
2018-01-18T09:40:44.016Z,977.3
2018-01-18T09:41:45.637Z,977.4
2018-01-18T09:42:47.252Z,977.3
2018-01-18T09:43:48.864Z,977.3
2018-01-18T09:44:50.479Z,977.7
2018-01-18T09:45:52.097Z,976.9
2018-01-18T09:46:53.714Z,977.4
2018-01-18T09:47:55.328Z,977.6
2018-01-18T09:48:56.944Z,977.3
2018-01-18T09:49:58.554Z,977.6
2018-01-18T09:51:00.176Z,977.6
2018-01-18T09:52:01.787Z,977.5
2018-01-18T09:53:03.401Z,977.8
2018-01-18T09:54:05.023Z,977.8
2018-01-18T09:55:06.633Z,977.7
2018-01-18T09:56:08.248Z,977.8
2018-01-18T09:57:09.865Z,977.6
2018-01-18T09:58:11.477Z,978.3
2018-01-18T09:59:13.094Z,978.0
2018-01-18T10:00:14.709Z,978.1
2018-01-18T10:01:16.327Z,978.2
2018-01-18T10:02:17.981Z,978.0
2018-01-18T10:03:19.560Z,977.8
2018-01-18T10:04:21.175Z,978.0
2018-01-18T10:05:22.784Z,978.1
2018-01-18T10:06:24.400Z,978.2
2018-01-18T10:07:26.019Z,978.4
2018-01-18T10:08:27.631Z,978.7
2018-01-18T10:09:29.252Z,978.5
2018-01-18T10:10:30.869Z,978.3
2018-01-18T10:11:32.485Z,978.6
2018-01-18T10:12:34.101Z,978.4
2018-01-18T10:13:35.713Z,978.1
2018-01-18T10:14:37.333Z,978.6
2018-01-18T10:15:38.945Z,978.8
2018-01-18T10:16:40.565Z,978.4
2018-01-18T10:17:42.179Z,978.8
2018-01-18T10:18:43.797Z,978.8
2018-01-18T10:19:45.407Z,978.8
2018-01-18T10:20:47.066Z,978.9
2018-01-18T10:21:48.639Z,978.9
2018-01-18T10:22:50.254Z,978.9
2018-01-18T10:23:51.867Z,979.0
2018-01-18T10:24:53.486Z,979.1
2018-01-18T10:25:55.101Z,979.0
2018-01-18T10:26:56.717Z,979.2
2018-01-18T10:27:58.394Z,979.1
2018-01-18T10:28:59.939Z,979.1
2018-01-18T10:30:01.555Z,979.3
2018-01-18T10:31:03.173Z,979.2
2018-01-18T10:32:04.790Z,978.6
2018-01-18T10:33:06.398Z,979.3
2018-01-18T10:34:08.012Z,979.5
2018-01-18T10:35:09.629Z,979.6
2018-01-18T10:36:11.243Z,979.6
2018-01-18T10:37:12.856Z,979.9
2018-01-18T10:38:14.468Z,979.7
2018-01-18T10:39:16.088Z,980.1
2018-01-18T10:40:17.699Z,980.2
2018-01-18T10:41:19.317Z,980.0
2018-01-18T10:42:20.926Z,979.9
2018-01-18T10:43:22.546Z,979.7
2018-01-18T10:44:24.159Z,980.0
2018-01-18T10:45:25.775Z,979.9
2018-01-18T10:46:27.387Z,980.2
2018-01-18T10:47:29.002Z,980.1
2018-01-18T10:48:30.611Z,980.3
2018-01-18T10:49:32.228Z,980.5
2018-01-18T10:50:33.839Z,980.3
2018-01-18T10:51:35.468Z,980.5
2018-01-18T10:52:37.171Z,980.4
2018-01-18T10:53:38.788Z,980.7
2018-01-18T10:54:40.403Z,980.3
2018-01-18T10:55:42.015Z,980.5
2018-01-18T10:56:43.628Z,980.6
2018-01-18T10:57:45.246Z,980.8
2018-01-18T10:58:46.861Z,981.0
2018-01-18T10:59:48.473Z,980.8
2018-01-18T11:00:50.085Z,980.6
2018-01-18T11:01:51.700Z,981.0
2018-01-18T11:02:53.313Z,980.7
2018-01-18T11:03:54.923Z,981.2
2018-01-18T11:04:56.538Z,981.3
2018-01-18T11:05:58.153Z,981.4
2018-01-18T11:06:59.776Z,981.3
2018-01-18T11:08:01.388Z,981.2
2018-01-18T11:09:02.994Z,981.7
2018-01-18T11:10:04.611Z,981.6
2018-01-18T11:11:06.227Z,981.7
2018-01-18T11:12:07.855Z,981.1
2018-01-18T11:13:09.454Z,981.3
2018-01-18T11:14:11.064Z,981.6
2018-01-18T11:15:12.681Z,981.5
2018-01-18T11:16:14.288Z,981.5
2018-01-18T11:17:15.898Z,981.5
2018-01-18T11:18:17.513Z,981.6
2018-01-18T11:19:19.126Z,982.0
2018-01-18T11:20:20.738Z,982.1
2018-01-18T11:21:22.352Z,982.0
2018-01-18T11:22:23.969Z,981.8
2018-01-18T11:23:25.582Z,982.2
2018-01-18T11:24:27.192Z,982.2
2018-01-18T11:25:28.803Z,982.2
2018-01-18T11:26:30.421Z,982.1
2018-01-18T11:27:32.037Z,982.3
2018-01-18T11:28:33.647Z,982.2
2018-01-18T11:29:35.259Z,982.6
2018-01-18T11:30:36.874Z,982.5
2018-01-18T11:31:38.487Z,982.2
2018-01-18T11:32:40.095Z,982.4
2018-01-18T11:33:41.709Z,982.7
2018-01-18T11:34:43.317Z,982.6
2018-01-18T11:35:44.933Z,982.8
2018-01-18T11:36:46.543Z,982.9
2018-01-18T11:37:48.158Z,982.8
2018-01-18T11:38:49.766Z,982.7
2018-01-18T11:39:51.382Z,982.8
2018-01-18T11:40:52.992Z,983.0
2018-01-18T11:41:54.609Z,983.1
2018-01-18T11:42:56.219Z,983.2
2018-01-18T11:43:57.837Z,983.2
2018-01-18T11:44:59.451Z,983.4
2018-01-18T11:46:01.055Z,983.3
2018-01-18T11:47:02.671Z,983.5
2018-01-18T11:48:04.284Z,983.4
2018-01-18T11:49:05.892Z,983.5
2018-01-18T11:50:07.504Z,983.5
2018-01-18T11:51:09.121Z,983.4
2018-01-18T11:52:10.729Z,983.4
2018-01-18T11:53:12.347Z,983.6
2018-01-18T11:54:13.958Z,983.6
2018-01-18T11:55:15.577Z,983.6
2018-01-18T11:56:17.187Z,983.7
2018-01-18T11:57:18.803Z,983.5
2018-01-18T11:58:20.415Z,983.4
2018-01-18T11:59:22.029Z,983.8
2018-01-18T12:00:23.642Z,983.9
2018-01-18T12:01:25.258Z,983.8
2018-01-18T12:02:26.876Z,983.9
2018-01-18T12:03:28.486Z,984.0
2018-01-18T12:04:30.100Z,984.4
2018-01-18T12:05:31.718Z,983.8
2018-01-18T12:06:33.331Z,984.4
2018-01-18T12:07:34.942Z,984.3
2018-01-18T12:08:36.558Z,984.3
2018-01-18T12:09:38.172Z,984.4
2018-01-18T12:10:39.785Z,984.4
2018-01-18T12:11:41.402Z,984.8
2018-01-18T12:12:43.018Z,984.5
2018-01-18T12:13:44.626Z,984.7
2018-01-18T12:14:46.240Z,984.8
2018-01-18T12:15:47.858Z,984.6
2018-01-18T12:16:49.474Z,984.6
2018-01-18T12:17:51.084Z,984.9
2018-01-18T12:18:52.704Z,984.9
2018-01-18T12:19:54.312Z,984.8
2018-01-18T12:20:55.929Z,985.0
2018-01-18T12:21:57.537Z,984.9
2018-01-18T12:22:59.154Z,985.0
2018-01-18T12:24:00.767Z,984.9
2018-01-18T12:25:02.384Z,985.1
2018-01-18T12:26:03.995Z,985.1
2018-01-18T12:27:05.609Z,985.2
2018-01-18T12:28:07.224Z,985.2
2018-01-18T12:29:08.841Z,985.1
2018-01-18T12:30:10.451Z,985.3
2018-01-18T12:31:12.062Z,985.3
2018-01-18T12:32:13.680Z,985.2
2018-01-18T12:33:15.292Z,985.3
2018-01-18T12:34:16.911Z,985.3
2018-01-18T12:35:18.517Z,985.3
2018-01-18T12:36:20.132Z,985.5
2018-01-18T12:37:21.742Z,985.3
2018-01-18T12:38:23.359Z,985.6
2018-01-18T12:39:24.967Z,985.5
2018-01-18T12:40:26.591Z,985.5
2018-01-18T12:41:28.204Z,985.7
2018-01-18T12:42:29.810Z,985.6
2018-01-18T12:43:31.426Z,985.7
2018-01-18T12:44:33.035Z,985.6
2018-01-18T12:45:34.652Z,985.7
2018-01-18T12:46:36.265Z,985.7
2018-01-18T12:47:37.884Z,985.8
2018-01-18T12:48:39.495Z,985.8
2018-01-18T12:49:41.111Z,985.8
2018-01-18T12:50:42.726Z,985.9
2018-01-18T12:51:44.338Z,986.1
2018-01-18T12:52:45.950Z,986.1
2018-01-18T12:53:47.567Z,986.0
2018-01-18T12:54:49.180Z,986.2
2018-01-18T12:55:50.798Z,986.2
2018-01-18T12:56:52.411Z,986.1
2018-01-18T12:57:54.017Z,986.3
2018-01-18T12:58:55.630Z,986.3
2018-01-18T12:59:57.238Z,986.4
2018-01-18T13:00:58.853Z,986.2
2018-01-18T13:02:00.464Z,986.3
2018-01-18T13:03:02.082Z,986.2
2018-01-18T13:04:03.691Z,986.3
2018-01-18T13:05:05.307Z,986.5
2018-01-18T13:06:06.920Z,986.5
2018-01-18T13:07:08.533Z,986.8
2018-01-18T13:08:10.143Z,986.5
2018-01-18T13:09:11.806Z,986.7
2018-01-18T13:10:13.375Z,986.7
2018-01-18T13:11:14.982Z,986.6
2018-01-18T13:12:16.594Z,986.7
2018-01-18T13:13:18.206Z,986.6
2018-01-18T13:14:19.817Z,986.6